createdAt,value
2023-02-16T00:00:30.067Z,50.76
2023-02-16T00:01:30.072Z,41.25
2023-02-16T00:02:30.095Z,43.02
2023-02-16T00:03:30.172Z,43.99
2023-02-16T00:04:30.042Z,41.57
2023-02-16T00:05:30.022Z,41.09
2023-02-16T00:06:30.012Z,41.57
2023-02-16T00:07:30.004Z,40.77
2023-02-16T00:08:30.010Z,48.50
2023-02-16T00:09:29.994Z,41.41
2023-02-16T00:10:29.985Z,40.77
2023-02-16T00:11:29.972Z,42.54
2023-02-16T00:12:29.951Z,42.06
2023-02-16T00:13:30.966Z,40.77
2023-02-16T00:14:29.966Z,40.12
2023-02-16T00:15:29.944Z,41.41
2023-02-16T00:16:29.947Z,39.80
2023-02-16T00:17:29.983Z,40.44
2023-02-16T00:18:29.921Z,40.77
2023-02-16T00:19:30.832Z,44.79
2023-02-16T00:20:29.901Z,42.86
2023-02-16T00:21:29.893Z,39.64
2023-02-16T00:22:29.889Z,40.12
2023-02-16T00:23:29.890Z,45.28
2023-02-16T00:26:19.656Z,37.22
2023-02-16T00:27:19.653Z,38.35
2023-02-16T00:28:19.656Z,39.16
2023-02-16T00:29:19.641Z,39.32
2023-02-16T00:30:19.668Z,38.03
2023-02-16T00:31:19.779Z,38.83
2023-02-16T00:32:19.790Z,40.61
2023-02-16T00:33:19.629Z,42.54
2023-02-16T00:34:20.693Z,39.16
2023-02-16T00:35:20.698Z,50.27
2023-02-16T00:36:20.675Z,40.12
2023-02-16T00:37:20.669Z,39.16
2023-02-16T00:38:20.700Z,41.09
2023-02-16T00:39:20.659Z,40.77
2023-02-16T00:40:20.649Z,38.83
2023-02-16T00:41:20.632Z,38.83
2023-02-16T00:42:20.629Z,38.51
2023-02-16T00:43:20.634Z,56.07
2023-02-16T00:44:20.610Z,43.34
2023-02-16T00:45:20.619Z,45.44
2023-02-16T00:46:20.633Z,39.32
2023-02-16T00:47:20.590Z,43.83
2023-02-16T00:48:20.601Z,48.98
2023-02-16T00:49:20.591Z,47.21
2023-02-16T00:50:20.563Z,49.15
2023-02-16T00:51:26.053Z,41.57
2023-02-16T00:52:23.522Z,43.83
2023-02-16T00:53:20.554Z,38.83
2023-02-16T00:54:20.551Z,38.83
2023-02-16T00:55:20.522Z,38.35
2023-02-16T00:56:20.515Z,42.22
2023-02-16T00:57:20.512Z,48.66
2023-02-16T00:58:20.524Z,45.76
2023-02-16T00:59:21.112Z,49.47
2023-02-16T01:00:20.485Z,43.34
2023-02-16T01:01:20.499Z,40.44
2023-02-16T01:02:21.104Z,41.57
2023-02-16T01:03:20.629Z,41.25
2023-02-16T01:04:21.140Z,42.38
2023-02-16T01:05:21.188Z,44.96
2023-02-16T01:06:20.438Z,42.06
2023-02-16T01:07:20.434Z,50.92
2023-02-16T01:08:20.422Z,48.02
2023-02-16T01:09:21.021Z,40.61
2023-02-16T01:10:20.420Z,40.44
2023-02-16T01:11:20.399Z,40.44
2023-02-16T01:12:20.401Z,40.44
2023-02-16T01:13:20.385Z,39.48
2023-02-16T01:14:20.370Z,39.32
2023-02-16T01:15:20.372Z,44.96
2023-02-16T01:16:20.350Z,41.25
2023-02-16T01:17:20.354Z,40.44
2023-02-16T01:18:21.150Z,49.15
2023-02-16T01:19:20.319Z,52.21
2023-02-16T01:20:20.324Z,48.66
2023-02-16T01:21:20.353Z,49.79
2023-02-16T01:22:20.332Z,47.05
2023-02-16T01:23:22.045Z,49.95
2023-02-16T01:24:21.020Z,39.80
2023-02-16T01:25:20.279Z,51.40
2023-02-16T01:26:20.329Z,38.83
2023-02-16T01:27:20.270Z,39.48
2023-02-16T01:28:21.026Z,39.64
2023-02-16T01:29:20.287Z,40.77
2023-02-16T01:30:20.271Z,39.80
2023-02-16T01:33:08.100Z,42.22
2023-02-16T01:34:08.104Z,39.64
2023-02-16T01:35:08.086Z,40.28
2023-02-16T01:36:08.087Z,43.18
2023-02-16T01:37:09.179Z,43.99
2023-02-16T01:38:09.171Z,44.79
2023-02-16T01:39:09.168Z,43.18
2023-02-16T01:40:09.139Z,53.66
2023-02-16T01:41:09.970Z,50.43
2023-02-16T01:42:09.135Z,40.61
2023-02-16T01:43:09.131Z,38.83
2023-02-16T01:44:09.126Z,39.80
2023-02-16T01:45:09.111Z,46.89
2023-02-16T01:46:10.034Z,39.32
2023-02-16T01:47:09.110Z,50.60
2023-02-16T01:48:10.044Z,39.80
2023-02-16T01:49:10.970Z,39.48
2023-02-16T01:50:09.120Z,46.08
2023-02-16T01:51:09.064Z,43.83
2023-02-16T01:52:09.064Z,54.79
2023-02-16T01:53:09.971Z,43.51
2023-02-16T01:54:09.044Z,48.82
2023-02-16T01:55:09.034Z,38.99
2023-02-16T01:56:09.024Z,42.06
2023-02-16T01:57:09.047Z,43.51
2023-02-16T01:58:09.546Z,46.08
2023-02-16T01:59:08.992Z,45.92
2023-02-16T02:00:09.009Z,45.76
2023-02-16T02:01:09.970Z,39.16
2023-02-16T02:02:09.101Z,40.28
2023-02-16T02:03:09.067Z,43.99
2023-02-16T02:04:09.009Z,52.37
2023-02-16T02:05:09.558Z,58.81
2023-02-16T02:06:09.478Z,41.41
2023-02-16T02:07:08.931Z,39.32
2023-02-16T02:08:08.930Z,39.48
2023-02-16T02:09:08.957Z,38.83
2023-02-16T02:10:08.932Z,42.54
2023-02-16T02:11:08.911Z,45.60
2023-02-16T02:12:08.920Z,44.47
2023-02-16T02:13:08.944Z,52.05
2023-02-16T02:14:08.896Z,47.53
2023-02-16T21:25:29.397Z,54.62
2023-02-16T21:26:31.034Z,51.40
2023-02-16T21:27:37.059Z,57.36
2023-02-16T21:28:51.064Z,54.95
2023-02-16T21:29:33.208Z,57.85
2023-02-16T21:30:32.083Z,59.14
2023-02-16T21:31:30.272Z,60.75
2023-02-16T21:32:30.187Z,53.50
2023-02-16T21:33:30.171Z,50.60
2023-02-16T21:34:30.177Z,49.63
2023-02-16T21:35:30.172Z,49.79
2023-02-16T21:36:30.168Z,59.14
2023-02-16T21:37:30.142Z,56.56
2023-02-16T21:38:30.129Z,54.14
2023-02-16T21:39:30.126Z,56.24
2023-02-16T21:40:30.122Z,54.95
2023-02-16T21:41:30.128Z,58.33
2023-02-16T21:42:30.111Z,60.10
2023-02-16T21:43:30.098Z,51.72
2023-02-16T21:44:30.114Z,53.01
2023-02-16T21:45:30.086Z,52.69
2023-02-16T21:46:30.079Z,50.11
2023-02-16T21:47:30.054Z,47.86
2023-02-16T21:48:31.050Z,56.40
2023-02-16T21:49:30.054Z,58.81
2023-02-16T21:50:30.044Z,55.43
2023-02-16T21:51:30.042Z,59.94
2023-02-16T21:52:30.025Z,54.95
2023-02-16T21:53:30.017Z,53.98
2023-02-16T21:54:30.032Z,55.75
2023-02-16T21:55:30.578Z,52.37
2023-02-16T21:56:30.038Z,47.86
2023-02-16T21:57:29.981Z,57.04
2023-02-16T21:58:29.980Z,57.04
2023-02-16T21:59:29.993Z,55.43
2023-02-16T22:00:29.964Z,48.50
2023-02-16T22:01:30.492Z,50.76
2023-02-16T22:02:29.954Z,55.11
2023-02-16T22:03:29.951Z,47.21
2023-02-16T22:04:29.943Z,45.12
2023-02-16T22:05:29.924Z,52.37
2023-02-16T22:06:29.926Z,52.69
2023-02-16T22:07:29.911Z,52.69
2023-02-16T22:08:29.893Z,47.05
2023-02-16T22:09:29.898Z,49.95
2023-02-16T22:10:29.876Z,60.42
2023-02-16T22:11:29.876Z,51.40
2023-02-16T22:12:29.872Z,53.01
2023-02-16T22:13:29.868Z,56.88
2023-02-16T22:14:29.846Z,55.91
2023-02-16T22:15:29.881Z,55.59
2023-02-16T22:16:30.626Z,50.92
2023-02-16T22:17:29.833Z,56.24
2023-02-16T22:18:29.853Z,58.01
2023-02-16T22:21:37.150Z,49.63
2023-02-16T22:22:37.145Z,48.98
2023-02-16T22:23:42.046Z,52.21
2023-02-16T22:24:41.030Z,50.11
2023-02-16T22:25:41.156Z,52.69
2023-02-16T22:26:39.016Z,52.21
2023-02-16T22:27:37.114Z,48.82
2023-02-16T22:28:37.097Z,44.79
2023-02-16T22:29:37.094Z,46.08
2023-02-16T22:30:38.102Z,54.14
2023-02-16T22:31:37.260Z,47.86
2023-02-16T22:32:37.160Z,46.08
2023-02-16T22:33:39.024Z,48.66
2023-02-16T22:34:37.047Z,48.82
2023-02-16T22:35:37.041Z,48.50
2023-02-16T22:36:37.135Z,50.27
2023-02-16T22:37:37.043Z,53.66
2023-02-16T22:38:37.021Z,53.01
2023-02-16T22:39:37.024Z,53.50
2023-02-16T22:40:37.539Z,51.08
2023-02-16T22:41:36.994Z,55.11
2023-02-16T22:42:36.990Z,57.04
2023-02-16T22:43:38.092Z,52.37
2023-02-16T22:44:38.124Z,45.44
2023-02-16T22:45:38.094Z,52.85
2023-02-16T22:46:38.084Z,51.24
2023-02-16T22:47:38.056Z,48.50
2023-02-16T22:48:38.040Z,56.40
2023-02-16T22:49:38.025Z,56.24
2023-02-16T22:50:38.040Z,48.34
2023-02-16T22:51:38.626Z,51.72
2023-02-16T22:52:39.014Z,53.17
2023-02-16T22:53:38.006Z,49.31
2023-02-16T22:54:38.007Z,51.56
2023-02-16T22:55:37.983Z,54.46
2023-02-16T22:56:37.995Z,53.33
2023-02-16T22:57:37.979Z,48.02
2023-02-16T22:58:37.957Z,51.88
2023-02-16T22:59:37.964Z,57.85
2023-02-16T23:00:37.954Z,53.50
2023-02-16T23:01:37.952Z,55.43
2023-02-16T23:02:37.922Z,47.37
2023-02-16T23:03:37.960Z,45.92
2023-02-16T23:04:37.961Z,47.21
2023-02-16T23:05:37.918Z,49.79
2023-02-16T23:06:41.115Z,51.72
2023-02-16T23:07:37.885Z,44.63
2023-02-16T23:08:39.619Z,47.05
2023-02-16T23:09:37.871Z,48.18
2023-02-16T23:10:37.888Z,49.47
2023-02-16T23:13:26.638Z,48.98
2023-02-16T23:14:24.718Z,54.95
2023-02-16T23:15:24.724Z,50.76
2023-02-16T23:16:24.773Z,47.05
2023-02-16T23:17:24.704Z,52.69
2023-02-16T23:18:24.698Z,49.15
2023-02-16T23:19:24.687Z,58.01
2023-02-16T23:20:25.766Z,51.40
2023-02-16T23:21:25.780Z,47.70
2023-02-16T23:22:25.757Z,48.02
2023-02-16T23:23:25.766Z,46.25
2023-02-16T23:24:25.766Z,52.53
2023-02-16T23:25:25.742Z,45.92
2023-02-16T23:26:25.744Z,52.53
2023-02-16T23:27:25.716Z,45.76
2023-02-16T23:28:25.718Z,43.83
2023-02-16T23:29:25.703Z,44.96
2023-02-16T23:30:25.756Z,48.66
2023-02-16T23:31:25.878Z,49.15
2023-02-16T23:32:25.674Z,49.47
2023-02-16T23:33:25.671Z,46.73
2023-02-16T23:34:25.668Z,44.63
2023-02-16T23:35:27.733Z,45.44
2023-02-16T23:36:29.154Z,49.15
2023-02-16T23:37:25.654Z,45.12
2023-02-16T23:38:25.630Z,50.43
2023-02-16T23:39:25.614Z,44.63
2023-02-16T23:40:26.608Z,49.15
2023-02-16T23:41:27.166Z,51.24
2023-02-16T23:42:25.641Z,49.79
2023-02-16T23:43:25.605Z,51.88
2023-02-16T23:44:25.579Z,44.79
2023-02-16T23:45:25.598Z,43.67
2023-02-16T23:46:29.221Z,48.18
2023-02-16T23:47:25.554Z,52.05
2023-02-16T23:48:25.556Z,43.99
2023-02-16T23:49:25.537Z,59.30
2023-02-16T23:50:25.552Z,51.08
2023-02-16T23:51:25.523Z,47.70
2023-02-16T23:52:25.512Z,43.83
2023-02-16T23:53:25.521Z,50.11
2023-02-16T23:54:26.189Z,47.86
2023-02-16T23:55:25.493Z,51.88
2023-02-16T23:56:25.481Z,43.83
2023-02-16T23:57:25.468Z,45.92
2023-02-16T23:58:25.472Z,43.67
2023-02-16T23:59:25.459Z,41.89
